Share

Pawnee, OK (74058)

PAWNEE (KOKJENNI2) Elev 833 ft | 36.24 °N, 96.60 °W | Change Station

Current weather conditions updated 6 seconds ago

Clear
Clear
72.5 °F
Feels Like 76 °F
N
2.2
Wind Variable Wind from NW
Gusts 4.5 mph
Sunrise 6:49 AM
Sunset 8:03 PM
Moon Waning Gibbous

Today is forecast to be Much Warmer than yesterday.

Pressure 30.28 in
Visibility 8.0 miles
Clouds Clear
Heat Index 76 °F
Dew Point 39 °F
Humidity 30%
Rainfall 0.00 in
Snow Depth Not available.
UV 7 out of 16
Pollen 8.70 out of 12
Air Quality Not available.
Flu Activity Regional
METAR KSWO 181553Z 00000KT 8SM CLR 16/06 A3028 RMK AO2 SLP253 T01560061

More Conditions Fewer Conditions

Pressure 30.28 in
Visibility 8.0 miles
Clouds Clear
Heat Index 76 °F
Dew Point 39 °F
Humidity 30%
Rainfall 0.00 in
Snow Depth Not available.
UV 7 out of 16
Pollen 8.70 out of 12
Air Quality Not available.
Flu Activity Regional
METAR KSWO 181553Z 00000KT 8SM CLR 16/06 A3028 RMK AO2 SLP253 T01560061

More Conditions Fewer Conditions

10-Day Weather Forecast

Almanac

Astronomy

Apr. 18, 2014 Rise Set
Actual Time 6:49 AM CDT 8:03 PM CDT
Civil Twilight 6:22 AM CDT 8:30 PM CDT
Nautical Twilight 5:51 AM CDT 9:02 PM CDT
Astronomical Twilight 5:17 AM CDT 9:35 PM CDT
Moon 11:46 PM CDT 9:16 AM CDT
Length of Visible Light 14h 07m
Length of Day
13h 14m
Tomorrow will be 2m 9s longer.
Waning Gibbous, 87% of the Moon is Illuminated
Today
Waning Gibbous
Apr 22
Last Quarter
Apr 29
New
May 6
First Quarter
May 14
Full

Today's Extremes

State Highs State Lows

Community

  • What's for Lunch?
    What's for Lunch?
  • SUNRISE THROUGH THE TREES.
    SUNRISE THROUGH THE TREES.
  • Dog Wood Blossoms
    Dog Wood Blossoms
  • Morning Light
    Morning Light
  • New Day
    New Day

WunderPhotos

Upload Photos

1,702,408 photos uploaded!

Nearby

Snow Depth

Station Depth Elevation
No new snow has been reported.

Coastal Water Temperatures

Place Temperature
No Stations Reporting

Earthquake Activity

City Distance Mag. Time & Date
Perry, Oklahoma 27 miles 2.6 1:20 PM CDT
2014-04-14
Guthrie, Oklahoma 55 miles 3.0 8:17 AM CDT
2014-04-14
Guthrie, Oklahoma 54 miles 3.7 3:02 PM CDT
2014-04-13
Guthrie, Oklahoma 55 miles 2.9 12:23 PM CDT
2014-04-13
Minimum magnitude displayed is 2.5.

Nearby Weather Stations

Station Location Temp. Heat Index Dew Point Humidity Wind Precip. Elev Updated Type
PAWNEE, Jennings, OK 72.5 °F 76 °F 39 °F 30% NW  at  2.2 mph 0.00 in / hr 833 ft 11:51 AM CDT Rapid Fire
Western Heights, Yale, OK 66.0 °F - 42 °F 42% NNW  at  4.0 mph 0.00 in / hr 892 ft 11:49 AM CDT Normal
Stillwater, East Side, Stillwater, OK 65.2 °F - 46 °F 49% East  at  3.6 mph 0.00 in / hr 948 ft 11:51 AM CDT Rapid Fire

Show More Stations Show Fewer Stations

What do you think?

We're not finished. Please let us know what you like, what you don't like, and what you are still missing.